Daily Summary for November 23, 2020 Units:  English    Metric   Both
Daily Weekly Monthly Yearly
  High: Low: Average:
Temperature: 73 °F 57 °F 63.5 °F
Dew Point: 63.1 °F 53.2 °F 59.9 °F
Humidity: 96% 62% 88%
Wind Speed: 13.2mph 0mph 4.1mph
Wind Gust: 35mph - -
Wind- - SW
Pressure: 29.9 in 29.6 in -
Precipitation: 1.26 in    
 
 
Tabular Data for November 23, 2020
Time Temperature Dew Point Pressure Wind Wind Speed Wind Gust Humidity Rainfall Rate (Hourly) solar
00:04 64.2 °F 61 °F 29.8 in SE 2.9 mph 9 mph 89.5% 0 in 0 W/m2
00:09 64 °F 61.2 °F 29.8 in SE 2.8 mph 6 mph 90% 0 in 0 W/m2
00:14 64.2 °F 61.2 °F 29.8 in SSE 2 mph 9 mph 90% 0 in 0 W/m2
00:19 64 °F 61 °F 29.8 in SSW 3.2 mph 12 mph 90% 0 in 0 W/m2
00:24 63.9 °F 60.8 °F 29.8 in SSW 4.8 mph 12 mph 90% 0 in 0 W/m2
00:29 63.7 °F 60.8 °F 29.8 in SSW 4.6 mph 12 mph 90.2% 0.01 in 0 W/m2
00:34 63.7 °F 61 °F 29.8 in SSW 3.6 mph 11 mph 91% 0.02 in 0 W/m2
00:39 63.5 °F 60.8 °F 29.9 in SW 3.2 mph 19 mph 91% 0.02 in 0 W/m2
00:44 63.5 °F 60.8 °F 29.9 in WSW 7 mph 21 mph 91% 0.06 in 0 W/m2
00:49 63.3 °F 60.6 °F 29.9 in WSW 10.6 mph 21 mph 91.1% 0.21 in 0 W/m2
00:54 63.1 °F 60.8 °F 29.9 in WSW 10 mph 21 mph 92% 0.32 in 0 W/m2
00:59 63 °F 60.4 °F 29.9 in WSW 8.2 mph 18 mph 92% 0.42 in 0 W/m2
01:04 62.8 °F 60.3 °F 29.9 in WSW 7 mph 18 mph 92% 0.5 in 0 W/m2
01:09 62.6 °F 60.3 °F 29.9 in WSW 5 mph 12 mph 92.2% 0.54 in 0 W/m2
01:14 62.4 °F 60.4 °F 29.9 in SW 2.8 mph 12 mph 93% 0.56 in 0 W/m2
01:19 62.4 °F 60.3 °F 29.9 in SSW 1.2 mph 5 mph 93% 0.58 in 0 W/m2
01:24 62.2 °F 60.3 °F 29.9 in South 1.6 mph 4 mph 93% 0.59 in 0 W/m2
01:29 62.4 °F 60.3 °F 29.9 in SSE 2 mph 4 mph 93% 0.6 in 0 W/m2
01:34 62.4 °F 60.3 °F 29.9 in SSE 1.6 mph 4 mph 93% 0.61 in 0 W/m2
01:39 62.4 °F 60.4 °F 29.8 in SE 1 mph 3 mph 93.6% 0.62 in 0 W/m2
01:44 62.2 °F 60.6 °F 29.8 in ESE 1 mph 3 mph 94% 0.63 in 0 W/m2
01:49 62.2 °F 60.4 °F 29.8 in ESE 1 mph 3 mph 94% 0.58 in 0 W/m2
01:54 62.2 °F 60.4 °F 29.8 in ESE 1.6 mph 3 mph 94% 0.45 in 0 W/m2
01:59 62.2 °F 60.6 °F 29.8 in ESE 1 mph 3 mph 94% 0.31 in 0 W/m2
02:04 62.2 °F 60.4 °F 29.8 in East 1 mph 3 mph 94% 0.26 in 0 W/m2
02:09 62.2 °F 60.6 °F 29.8 in East 1.6 mph 3 mph 94% 0.17 in 0 W/m2
02:14 62.4 °F 60.6 °F 29.8 in ENE 2 mph 3 mph 94% 0.15 in 0 W/m2
02:19 62.4 °F 60.6 °F 29.8 in NE 2 mph 3 mph 94% 0.16 in 0 W/m2
02:24 62.4 °F 60.6 °F 29.8 in NE 2 mph 3 mph 94% 0.18 in 0 W/m2
02:29 62.4 °F 60.6 °F 29.8 in NE 2 mph 3 mph 94% 0.19 in 0 W/m2
02:34 62.4 °F 60.6 °F 29.8 in NE 1 mph 3 mph 94% 0.2 in 0 W/m2
02:39 62.4 °F 60.8 °F 29.8 in NNE 1 mph 3 mph 94.4% 0.2 in 0 W/m2
02:44 62.4 °F 61 °F 29.8 in NNE 1 mph 3 mph 95% 0.2 in 0 W/m2
02:49 62.4 °F 61 °F 29.8 in NE 1.4 mph 5 mph 94.9% 0.23 in 0 W/m2
02:54 62.4 °F 60.8 °F 29.8 in NE 2 mph 5 mph 94.9% 0.24 in 0 W/m2
02:59 62.4 °F 61 °F 29.8 in ENE 2 mph 6 mph 95% 0.25 in 0 W/m2
03:04 62.4 °F 61 °F 29.8 in East 2 mph 6 mph 95% 0.28 in 0 W/m2
03:09 62.4 °F 61 °F 29.8 in East 2 mph 6 mph 95% 0.29 in 0 W/m2
03:14 62.4 °F 61 °F 29.8 in East 2 mph 6 mph 95% 0.29 in 0 W/m2
03:19 62.4 °F 60.8 °F 29.8 in East 2 mph 6 mph 95% 0.28 in 0 W/m2
03:24 62.4 °F 61 °F 29.8 in East 1 mph 6 mph 95% 0.25 in 0 W/m2
03:29 62.4 °F 61 °F 29.8 in ESE 1 mph 3 mph 95% 0.21 in 0 W/m2
03:34 62.4 °F 61 °F 29.8 in ESE 1 mph 3 mph 95% 0.2 in 0 W/m2
03:39 62.4 °F 60.8 °F 29.8 in East 1 mph 4 mph 95% 0.17 in 0 W/m2
03:44 62.2 °F 60.8 °F 29.8 in NNE 1.8 mph 4 mph 95% 0.14 in 0 W/m2
03:49 62.2 °F 60.8 °F 29.8 in North 2.8 mph 7 mph 95% 0.12 in 0 W/m2
03:54 62.2 °F 60.8 °F 29.8 in NNE 3.4 mph 9 mph 95% 0.09 in 0 W/m2
03:59 62.1 °F 60.6 °F 29.8 in NNE 4 mph 9 mph 95% 0.08 in 0 W/m2
04:04 61.9 °F 60.4 °F 29.8 in North 2.6 mph 9 mph 95% 0.06 in 0 W/m2
04:09 61.7 °F 60.3 °F 29.8 in WNW 2 mph 4 mph 95% 0.03 in 0 W/m2
04:14 61.7 °F 60.3 °F 29.8 in WNW 2 mph 6 mph 95% 0.02 in 0 W/m2
04:19 61.7 °F 60.3 °F 29.8 in WNW 2.2 mph 6 mph 95% 0.01 in 0 W/m2
04:24 61.7 °F 60.3 °F 29.8 in West 2 mph 6 mph 95% 0.01 in 0 W/m2
04:29 61.7 °F 60.4 °F 29.8 in West 2 mph 4 mph 95% 0.01 in 0 W/m2
04:34 61.9 °F 60.4 °F 29.8 in West 1 mph 3 mph 95% 0.01 in 0 W/m2
04:39 61.9 °F 60.4 °F 29.8 in WNW 1 mph 3 mph 95% 0 in 0 W/m2
04:44 61.7 °F 60.4 °F 29.8 in WNW 1.2 mph 3 mph 95% 0 in 0 W/m2
04:49 61.9 °F 60.4 °F 29.8 in WNW 1.8 mph 4 mph 95% 0 in 0 W/m2
04:54 61.9 °F 60.4 °F 29.8 in NW 2 mph 4 mph 95% 0 in 0 W/m2
04:59 61.7 °F 60.4 °F 29.8 in NW 2 mph 4 mph 95% 0 in 0 W/m2
05:04 61.7 °F 60.3 °F 29.8 in WNW 2 mph 4 mph 95% 0 in 0 W/m2
05:09 61.7 °F 60.3 °F 29.8 in WNW 2 mph 4 mph 95% 0 in 0 W/m2
05:14 61.7 °F 60.3 °F 29.8 in WNW 2 mph 4 mph 95% 0 in 0 W/m2
05:19 61.7 °F 60.3 °F 29.8 in WNW 2 mph 4 mph 95% 0.01 in 0 W/m2
05:24 61.7 °F 60.3 °F 29.8 in WNW 1.2 mph 4 mph 95% 0.01 in 0 W/m2
05:29 61.9 °F 60.4 °F 29.8 in WNW 1.4 mph 4 mph 95.3% 0.01 in 0 W/m2
05:34 61.9 °F 60.6 °F 29.7 in WNW 1 mph 4 mph 95.8% 0.01 in 0 W/m2
05:39 61.9 °F 60.4 °F 29.8 in NW 1.4 mph 4 mph 95.2% 0.01 in 0 W/m2
05:44 61.9 °F 60.4 °F 29.8 in NW 2 mph 4 mph 95% 0.01 in 0 W/m2
05:49 61.9 °F 60.6 °F 29.8 in NW 2 mph 4 mph 95.7% 0.01 in 0 W/m2
05:54 61.9 °F 60.6 °F 29.7 in NW 2 mph 4 mph 95.8% 0.01 in 0 W/m2
05:59 61.9 °F 60.6 °F 29.8 in NW 2 mph 4 mph 96% 0.01 in 7 W/m2
06:04 61.9 °F 60.6 °F 29.8 in WNW 2 mph 4 mph 96% 0.01 in 11 W/m2
06:09 61.9 °F 60.6 °F 29.7 in NW 1.8 mph 4 mph 96% 0.01 in 14 W/m2
06:14 61.9 °F 60.8 °F 29.8 in NW 1 mph 3 mph 96% 0.01 in 18 W/m2
06:19 61.9 °F 60.6 °F 29.8 in NW 1.6 mph 4 mph 95.6% 0.01 in 25 W/m2
06:24 62.1 °F 60.8 °F 29.7 in NW 2 mph 4 mph 95.9% 0 in 28 W/m2
06:29 62.1 °F 60.8 °F 29.7 in NW 2 mph 4 mph 96% 0 in 30 W/m2
06:34 62.1 °F 61 °F 29.7 in NW 2 mph 4 mph 96% 0 in 33 W/m2
06:39 62.1 °F 60.6 °F 29.7 in WNW 2 mph 4 mph 95.2% 0 in 37 W/m2
06:44 62.1 °F 60.8 °F 29.7 in WNW 2 mph 4 mph 95.6% 0 in 44 W/m2
06:49 62.1 °F 61 °F 29.7 in WNW 2 mph 4 mph 96% 0 in 42 W/m2
06:54 62.2 °F 61 °F 29.8 in WNW 2 mph 3 mph 96% 0 in 44 W/m2
06:59 62.2 °F 61.2 °F 29.8 in WNW 2 mph 4 mph 96% 0 in 49 W/m2
07:04 62.4 °F 61.2 °F 29.8 in NW 2 mph 4 mph 96% 0 in 70 W/m2
07:09 62.4 °F 61.3 °F 29.8 in NNW 2.4 mph 5 mph 96% 0 in 83 W/m2
07:14 62.6 °F 61.3 °F 29.8 in North 3 mph 6 mph 96% 0 in 88 W/m2
07:19 62.4 °F 61.3 °F 29.8 in North 3.6 mph 6 mph 96% 0 in 91 W/m2
07:24 62.6 °F 61.3 °F 29.8 in NNW 3.6 mph 6 mph 96% 0 in 100 W/m2
07:29 62.8 °F 61.5 °F 29.8 in NNW 3 mph 6 mph 96% 0 in 90 W/m2
07:34 62.8 °F 61.2 °F 29.8 in NW 3 mph 5 mph 95% 0 in 63 W/m2
07:39 62.8 °F 61.3 °F 29.8 in NW 2.4 mph 5 mph 95% 0 in 47 W/m2
07:44 62.8 °F 61.5 °F 29.8 in NW 2 mph 7 mph 95.3% 0 in 44 W/m2
07:49 62.8 °F 61.3 °F 29.8 in NW 2.8 mph 7 mph 95% 0 in 37 W/m2
07:54 62.8 °F 61.3 °F 29.8 in WNW 2.6 mph 7 mph 95% 0.01 in 72 W/m2
07:59 63 °F 61.5 °F 29.8 in WNW 2 mph 6 mph 95.2% 0.01 in 90 W/m2
08:04 63 °F 61.7 °F 29.8 in NW 2 mph 6 mph 95.8% 0.01 in 109 W/m2
08:09 63.3 °F 62.1 °F 29.8 in NNW 2 mph 8 mph 96% 0.02 in 120 W/m2
08:14 63.3 °F 62.1 °F 29.7 in North 3.2 mph 10 mph 95.5% 0.02 in 148 W/m2
08:19 63.3 °F 61.9 °F 29.7 in NNE 4.4 mph 10 mph 95% 0.02 in 148 W/m2
08:24 63.3 °F 61.9 °F 29.7 in North 5 mph 10 mph 95% 0.02 in 141 W/m2
08:29 63.3 °F 61.9 °F 29.7 in NNE 6 mph 13 mph 95% 0.02 in 127 W/m2
08:34 63.3 °F 61.9 °F 29.7 in North 7 mph 18 mph 95% 0.02 in 162 W/m2
08:39 63.3 °F 61.9 °F 29.7 in NNW 7 mph 18 mph 95% 0.02 in 185 W/m2
08:44 63.5 °F 61.9 °F 29.7 in NNW 7 mph 18 mph 95% 0.02 in 176 W/m2
08:49 63.5 °F 61.9 °F 29.7 in NNW 7.8 mph 14 mph 95% 0.02 in 128 W/m2
08:54 63.5 °F 62.1 °F 29.7 in NNW 7.2 mph 14 mph 95% 0.01 in 193 W/m2
08:59 63.5 °F 62.1 °F 29.7 in NNW 6.2 mph 13 mph 95% 0.01 in 285 W/m2
09:04 63.9 °F 62.2 °F 29.7 in NNW 6.6 mph 13 mph 95% 0.01 in 285 W/m2
09:09 64 °F 62.4 °F 29.7 in NNW 7.2 mph 15 mph 95% 0.01 in 292 W/m2
09:14 64 °F 62.6 °F 29.7 in NW 8.6 mph 18 mph 95% 0 in 339 W/m2
09:19 64.4 °F 63 °F 29.7 in NW 9.2 mph 19 mph 95% 0 in 584 W/m2
09:24 64.6 °F 62.8 °F 29.7 in NW 10 mph 21 mph 94% 0 in 485 W/m2
09:29 64.9 °F 63.1 °F 29.7 in NW 10.6 mph 21 mph 93.9% 0 in 366 W/m2
09:34 65.1 °F 63 °F 29.7 in NW 10.4 mph 21 mph 93% 0 in 376 W/m2
09:39 65.3 °F 63.1 °F 29.7 in NW 8.4 mph 21 mph 93.3% 0 in 345 W/m2
09:44 65.1 °F 63.1 °F 29.7 in NNW 7.4 mph 16 mph 93% 0 in 290 W/m2
09:49 65.1 °F 62.8 °F 29.7 in NW 7.6 mph 16 mph 92.5% 0 in 262 W/m2
09:54 65.3 °F 63 °F 29.7 in NNW 7.6 mph 15 mph 92.3% 0 in 230 W/m2
09:59 65.3 °F 63 °F 29.7 in NNW 6.8 mph 13 mph 92% 0 in 197 W/m2
10:04 65.3 °F 63 °F 29.7 in NNW 6 mph 12 mph 92% 0 in 158 W/m2
10:09 65.5 °F 63 °F 29.7 in NNW 5.4 mph 12 mph 92% 0 in 193 W/m2
10:14 65.3 °F 63 °F 29.7 in North 5 mph 11 mph 92% 0 in 141 W/m2
10:19 65.1 °F 62.8 °F 29.7 in NW 6 mph 11 mph 92% 0 in 174 W/m2
10:24 65.1 °F 62.8 °F 29.7 in WNW 6 mph 11 mph 92% 0 in 179 W/m2
10:29 65.3 °F 62.8 °F 29.7 in NW 6 mph 14 mph 91.8% 0 in 318 W/m2
10:34 65.7 °F 63 °F 29.7 in NW 6 mph 14 mph 91% 0 in 318 W/m2
10:39 65.8 °F 62.8 °F 29.7 in NW 6 mph 12 mph 89.4% 0 in 248 W/m2
10:44 66 °F 62.6 °F 29.7 in NW 6 mph 12 mph 88.8% 0 in 246 W/m2
10:49 66 °F 62.4 °F 29.7 in NNW 6 mph 13 mph 88.1% 0 in 253 W/m2
10:54 66 °F 62.6 °F 29.7 in NNW 7 mph 14 mph 88.4% 0 in 271 W/m2
10:59 66 °F 62.8 °F 29.7 in NNW 8 mph 14 mph 89% 0 in 322 W/m2
11:04 66.2 °F 62.8 °F 29.7 in NNW 8 mph 15 mph 88.7% 0 in 257 W/m2
11:09 66.4 °F 62.8 °F 29.7 in NNW 7.2 mph 15 mph 88.2% 0 in 320 W/m2
11:14 66.2 °F 62.4 °F 29.7 in NW 8.4 mph 20 mph 87.4% 0 in 248 W/m2
11:19 66.4 °F 62.2 °F 29.7 in NW 9.8 mph 20 mph 87.1% 0 in 501 W/m2
11:24 66.7 °F 62.8 °F 29.7 in NW 10 mph 20 mph 87.1% 0 in 501 W/m2
11:29 66.7 °F 62.4 °F 29.7 in NW 10 mph 19 mph 86% 0 in 353 W/m2
11:34 66.2 °F 62.2 °F 29.7 in NW 10.6 mph 19 mph 87.2% 0 in 422 W/m2
11:39 66 °F 62.4 °F 29.7 in NW 10.4 mph 18 mph 88.5% 0 in 522 W/m2
11:44 66.6 °F 63 °F 29.7 in NW 9.2 mph 17 mph 88.4% 0 in 571 W/m2
11:49 66.9 °F 63.1 °F 29.7 in NNW 8 mph 19 mph 87.3% 0 in 343 W/m2
11:54 66.9 °F 62.6 °F 29.7 in NNW 8.2 mph 19 mph 86% 0 in 142 W/m2
11:59 66.9 °F 62.2 °F 29.7 in NW 9.4 mph 21 mph 85.1% 0 in 209 W/m2
12:04 66.9 °F 62.1 °F 29.7 in NW 10.4 mph 21 mph 84.3% 0 in 279 W/m2
12:09 67.3 °F 61.9 °F 29.7 in NW 11.6 mph 21 mph 83.2% 0 in 355 W/m2
12:14 67.5 °F 61.9 °F 29.7 in NW 11.8 mph 25 mph 82.4% 0.01 in 316 W/m2
12:19 67.8 °F 62.2 °F 29.7 in NW 10.4 mph 25 mph 82.2% 0.01 in 371 W/m2
12:24 68.2 °F 62.2 °F 29.7 in NW 8.4 mph 25 mph 81.3% 0.01 in 515 W/m2
12:29 68.4 °F 61.3 °F 29.7 in NW 9.8 mph 24 mph 78.5% 0.01 in 563 W/m2
12:34 68.5 °F 60.8 °F 29.7 in NW 12.4 mph 24 mph 76.5% 0.01 in 517 W/m2
12:39 68.4 °F 61 °F 29.7 in NW 12 mph 24 mph 77% 0.01 in 250 W/m2
12:44 68.2 °F 60.6 °F 29.7 in NW 12.4 mph 27 mph 76.8% 0.01 in 269 W/m2
12:49 68 °F 60.4 °F 29.7 in NW 13.2 mph 27 mph 77% 0.01 in 135 W/m2
12:54 67.6 °F 60.6 °F 29.7 in NW 12.1 mph 27 mph 78.1% 0.01 in 98 W/m2
12:59 67.6 °F 60.6 °F 29.7 in NW 10 mph 27 mph 78.5% 0.01 in 102 W/m2
13:04 67.5 °F 60.8 °F 29.7 in NW 9.4 mph 23 mph 79% 0.01 in 90 W/m2
13:09 67.3 °F 59.2 °F 29.7 in WNW 10.4 mph 35 mph 75.5% 0.01 in 40 W/m2
13:14 64.4 °F 54.9 °F 29.7 in WSW 12.4 mph 35 mph 71.1% 0.05 in 19 W/m2
13:19 60.8 °F 54 °F 29.7 in SW 11.6 mph 35 mph 78.4% 0.14 in 44 W/m2
13:24 58.1 °F 53.2 °F 29.7 in WSW 8.1 mph 26 mph 84% 0.2 in 100 W/m2
13:29 57 °F 53.4 °F 29.7 in WSW 5.8 mph 18 mph 87.8% 0.2 in 160 W/m2
13:34 57.2 °F 54.3 °F 29.7 in WSW 4.2 mph 14 mph 90.3% 0.22 in 185 W/m2
13:39 57.6 °F 54.9 °F 29.7 in SW 2.9 mph 9 mph 90.8% 0.22 in 169 W/m2
13:44 57.7 °F 55.2 °F 29.7 in SSW 1.8 mph 9 mph 91.2% 0.23 in 128 W/m2
13:49 57.9 °F 55.2 °F 29.7 in South 1 mph 5 mph 90.8% 0.23 in 84 W/m2
13:54 57.9 °F 55.2 °F 29.7 in SSW 1 mph 3 mph 91% 0.23 in 127 W/m2
13:59 58.1 °F 55.6 °F 29.7 in South 1 mph 4 mph 91.3% 0.23 in 221 W/m2
14:04 58.1 °F 55.6 °F 29.7 in East 1 mph 4 mph 91.5% 0.23 in 230 W/m2
14:09 58.5 °F 56.1 °F 29.7 in NE 1.2 mph 4 mph 92% 0.23 in 195 W/m2
14:14 58.8 °F 56.5 °F 29.7 in NE 1.2 mph 3 mph 92.2% 0.23 in 199 W/m2
14:19 59 °F 56.7 °F 29.7 in NE 2 mph 4 mph 92% 0.17 in 144 W/m2
14:24 59 °F 56.7 °F 29.7 in NNE 2.4 mph 10 mph 91.8% 0.06 in 70 W/m2
14:29 59 °F 56.5 °F 29.7 in NNE 3.8 mph 10 mph 91.5% 0.02 in 77 W/m2
14:34 58.8 °F 56.3 °F 29.7 in NNE 4.6 mph 12 mph 91% 0.02 in 163 W/m2
14:39 59 °F 56.3 °F 29.7 in NNE 5.8 mph 12 mph 91% 0.01 in 311 W/m2
14:44 59.2 °F 56.7 °F 29.6 in NNE 6 mph 12 mph 91% 0.01 in 366 W/m2
14:49 59.7 °F 57 °F 29.6 in NNE 5.4 mph 15 mph 91% 0 in 399 W/m2
14:54 59.9 °F 57 °F 29.6 in NNE 7 mph 15 mph 90.3% 0 in 401 W/m2
14:59 60.1 °F 57.2 °F 29.6 in NNE 8 mph 15 mph 90.2% 0 in 911 W/m2
15:04 61.7 °F 59 °F 29.6 in NNE 6.5 mph 12 mph 90.8% 0 in 911 W/m2
15:09 62.6 °F 59 °F 29.6 in NNE 4.6 mph 12 mph 87.7% 0 in 693 W/m2
15:14 62.6 °F 58.5 °F 29.6 in NNE 4.4 mph 10 mph 86.3% 0 in 652 W/m2
15:19 62.6 °F 58.5 °F 29.6 in North 4 mph 10 mph 86.7% 0 in 540 W/m2
15:24 63.1 °F 58.8 °F 29.6 in North 4.2 mph 11 mph 86.2% 0 in 527 W/m2
15:29 63.1 °F 58.6 °F 29.6 in North 5.6 mph 12 mph 85.3% 0 in 466 W/m2
15:34 62.8 °F 58.6 °F 29.6 in North 6.8 mph 12 mph 86.2% 0 in 450 W/m2
15:39 62.8 °F 58.3 °F 29.6 in NNW 6.2 mph 14 mph 85.7% 0 in 468 W/m2
15:44 62.8 °F 58.6 °F 29.6 in North 6.8 mph 14 mph 86.2% 0 in 438 W/m2
15:49 62.4 °F 58.3 °F 29.6 in North 7.4 mph 14 mph 86.2% 0 in 443 W/m2
15:54 62.2 °F 58.3 °F 29.6 in NNW 7 mph 14 mph 87% 0 in 443 W/m2
15:59 62.2 °F 58.6 °F 29.6 in NW 7 mph 14 mph 87.6% 0 in 441 W/m2
16:04 62.8 °F 59.2 °F 29.6 in NW 6.4 mph 14 mph 87.5% 0 in 450 W/m2
16:09 63 °F 59.2 °F 29.6 in NNW 6.6 mph 14 mph 87.2% 0 in 471 W/m2
16:14 63.1 °F 59 °F 29.6 in NNW 7 mph 15 mph 86.7% 0 in 536 W/m2
16:19 63.5 °F 59.5 °F 29.6 in NNW 6.8 mph 15 mph 86.9% 0 in 905 W/m2
16:24 64.6 °F 59.9 °F 29.6 in NNW 7 mph 15 mph 84.5% 0 in 872 W/m2
16:29 65.5 °F 60.1 °F 29.6 in NNW 7.4 mph 18 mph 82.4% 0 in 689 W/m2
16:34 65.7 °F 60.1 °F 29.6 in NNW 8.9 mph 18 mph 81.8% 0 in 650 W/m2
16:39 66.4 °F 60.1 °F 29.6 in NNW 10.2 mph 18 mph 80.5% 0 in 624 W/m2
16:44 67.1 °F 60.8 °F 29.6 in North 9.4 mph 18 mph 80.2% 0 in 599 W/m2
16:49 66.9 °F 60.6 °F 29.6 in North 8.6 mph 18 mph 80% 0 in 570 W/m2
16:54 66.6 °F 59.9 °F 29.6 in NNW 8.6 mph 17 mph 79.4% 0 in 533 W/m2
16:59 66.2 °F 60.1 °F 29.6 in NW 9.2 mph 19 mph 80.3% 0 in 485 W/m2
17:04 66.2 °F 59.9 °F 29.6 in NW 10 mph 19 mph 80.4% 0 in 459 W/m2
17:09 66.7 °F 60.6 °F 29.6 in NW 10 mph 19 mph 80.8% 0 in 431 W/m2
17:14 67.5 °F 60.8 °F 29.6 in NW 9 mph 18 mph 79.5% 0 in 390 W/m2
17:19 67.8 °F 60.8 °F 29.6 in NW 8.8 mph 17 mph 78.2% 0 in 397 W/m2
17:24 67.6 °F 60.3 °F 29.6 in NW 9.2 mph 17 mph 77.2% 0 in 390 W/m2
17:29 68 °F 60.6 °F 29.6 in NW 9.6 mph 17 mph 77.1% 0 in 357 W/m2
17:34 67.8 °F 60.4 °F 29.6 in NW 9 mph 17 mph 77.3% 0 in 244 W/m2
17:39 67.5 °F 60.4 °F 29.6 in NW 9 mph 17 mph 78% 0 in 348 W/m2
17:44 68 °F 60.4 °F 29.6 in NNW 7.6 mph 17 mph 77.1% 0 in 352 W/m2
17:49 68.2 °F 60.3 °F 29.6 in NNW 5.8 mph 14 mph 75.7% 0 in 220 W/m2
17:54 68 °F 60.3 °F 29.6 in NNW 4.6 mph 13 mph 76.2% 0 in 244 W/m2
17:59 67.6 °F 60.1 °F 29.6 in NW 4.8 mph 12 mph 76.3% 0 in 244 W/m2
18:04 68 °F 59.7 °F 29.6 in NW 4.6 mph 12 mph 75.1% 0 in 239 W/m2
18:09 68.4 °F 59.9 °F 29.7 in NW 4 mph 12 mph 74.5% 0 in 404 W/m2
18:14 69.3 °F 60.4 °F 29.7 in NW 4 mph 10 mph 73.6% 0 in 353 W/m2
18:19 71.1 °F 60.4 °F 29.7 in NW 3.4 mph 10 mph 69% 0 in 279 W/m2
18:24 73 °F 59.2 °F 29.7 in NW 1.8 mph 7 mph 62% 0 in 230 W/m2
18:29 72.9 °F 60.3 °F 29.7 in SW 1 mph 7 mph 64.6% 0 in 174 W/m2
18:34 71.4 °F 60.4 °F 29.7 in ESE 1.8 mph 7 mph 68.4% 0 in 53 W/m2
18:39 70.2 °F 60.3 °F 29.7 in East 2.8 mph 7 mph 70.6% 0 in 51 W/m2
18:44 69.6 °F 60.6 °F 29.7 in East 2 mph 7 mph 73% 0 in 46 W/m2
18:49 69.3 °F 60.1 °F 29.7 in East 2 mph 7 mph 72.5% 0 in 49 W/m2
18:54 68.7 °F 60.1 °F 29.7 in East 2 mph 7 mph 73.9% 0 in 51 W/m2
18:59 68.2 °F 59.7 °F 29.7 in East 1.4 mph 8 mph 74.3% 0 in 51 W/m2
19:04 68 °F 59.5 °F 29.7 in East 1.2 mph 8 mph 74.3% 0 in 44 W/m2
19:09 67.5 °F 59.5 °F 29.7 in East 1.4 mph 8 mph 75.4% 0 in 33 W/m2
19:14 67.3 °F 59.5 °F 29.7 in East 1.4 mph 4 mph 76% 0 in 26 W/m2
19:19 67.3 °F 59.5 °F 29.7 in ESE 2 mph 4 mph 76% 0 in 26 W/m2
19:24 67.1 °F 59.5 °F 29.7 in SE 1.8 mph 4 mph 76.9% 0 in 26 W/m2
19:29 66.7 °F 59.5 °F 29.7 in ESE 1 mph 6 mph 77.7% 0 in 23 W/m2
19:34 66.4 °F 59.2 °F 29.7 in ENE 1.8 mph 6 mph 78% 0 in 21 W/m2
19:39 66 °F 59.5 °F 29.7 in NE 2.2 mph 6 mph 79.3% 0 in 16 W/m2
19:44 65.8 °F 59.5 °F 29.7 in NE 3 mph 6 mph 80% 0 in 11 W/m2
19:49 65.7 °F 59.5 °F 29.7 in NE 2 mph 5 mph 80.6% 0 in 7 W/m2
19:54 65.3 °F 59.4 °F 29.7 in NE 1.4 mph 4 mph 81% 0 in 0 W/m2
19:59 65.1 °F 59.4 °F 29.7 in NNE 1.4 mph 9 mph 81.4% 0 in 0 W/m2
20:04 64.9 °F 59.4 °F 29.7 in NNE 2.8 mph 9 mph 82% 0 in 0 W/m2
20:09 64.8 °F 59.2 °F 29.7 in NE 3.2 mph 9 mph 82% 0 in 0 W/m2
20:14 64.6 °F 59.2 °F 29.7 in NE 3 mph 6 mph 82.8% 0 in 0 W/m2
20:19 64.4 °F 59 °F 29.7 in NE 2.6 mph 6 mph 83% 0 in 0 W/m2
20:24 64.2 °F 59.4 °F 29.7 in NE 2 mph 5 mph 83.8% 0 in 0 W/m2
20:29 64.2 °F 59.2 °F 29.7 in NE 2 mph 5 mph 84% 0 in 0 W/m2
20:34 64 °F 59.4 °F 29.7 in NNE 1.8 mph 4 mph 84.3% 0 in 0 W/m2
20:39 64.2 °F 59.4 °F 29.7 in NNE 1 mph 4 mph 84.2% 0 in 0 W/m2
20:44 64 °F 59.2 °F 29.7 in NNE 0.2 mph 2 mph 84% 0 in 0 W/m2
20:49 63.9 °F 59 °F 29.7 in NNE 1 mph 2 mph 84.6% 0 in 0 W/m2
20:54 63.9 °F 58.8 °F 29.7 in NNE 1 mph 2 mph 84.1% 0 in 0 W/m2
20:59 63.9 °F 59 °F 29.7 in North 0.2 mph 2 mph 84.5% 0 in 0 W/m2
21:04 63.5 °F 58.6 °F 29.7 in NW 0.8 mph 2 mph 84% 0 in 0 W/m2
21:09 63.3 °F 58.6 °F 29.7 in NW 1 mph 2 mph 84.7% 0 in 0 W/m2
21:14 63 °F 58.5 °F 29.7 in NNW 1 mph 3 mph 85% 0 in 0 W/m2
21:19 63 °F 58.1 °F 29.7 in East 1 mph 4 mph 84.5% 0 in 0 W/m2
21:24 62.8 °F 57.7 °F 29.7 in SE 1 mph 4 mph 83.3% 0 in 0 W/m2
21:29 62.6 °F 56.1 °F 29.7 in SSE 1 mph 5 mph 79.5% 0 in 0 W/m2
21:34 62.6 °F 55 °F 29.7 in SE 1 mph 5 mph 76.3% 0 in 0 W/m2
21:39 62.8 °F 54.5 °F 29.7 in ESE 0.8 mph 5 mph 74.7% 0 in 0 W/m2
21:44 62.4 °F 54.9 °F 29.7 in Calm   2 mph 76.3% 0 in 0 W/m2
21:49 61.9 °F 55.6 °F 29.8 in ESE 0.6 mph 4 mph 79.8% 0 in 0 W/m2
21:54 61.3 °F 55.9 °F 29.8 in NNE 2 mph 5 mph 82.6% 0 in 0 W/m2
21:59 61.2 °F 56.5 °F 29.8 in NW 3 mph 5 mph 84.4% 0 in 0 W/m2
22:04 61.2 °F 56.8 °F 29.8 in NW 2.4 mph 5 mph 85.4% 0 in 0 W/m2
22:09 61 °F 56.8 °F 29.8 in WNW 1.2 mph 4 mph 86.2% 0 in 0 W/m2
22:14 61 °F 57 °F 29.8 in WNW 0.6 mph 3 mph 86.7% 0 in 0 W/m2
22:19 60.8 °F 56.8 °F 29.8 in Calm   2 mph 87.2% 0 in 0 W/m2
22:24 60.3 °F 56.7 °F 29.8 in Calm   2 mph 87.8% 0 in 0 W/m2
22:29 59.7 °F 56.3 °F 29.8 in Calm   2 mph 88.5% 0 in 0 W/m2
22:34 59.7 °F 56.5 °F 29.8 in Calm   2 mph 89% 0 in 0 W/m2
22:39 59.7 °F 56.7 °F 29.8 in Calm   2 mph 89% 0 in 0 W/m2
22:44 59.7 °F 56.7 °F 29.8 in Calm   1 mph 89% 0 in 0 W/m2
22:49 59.5 °F 56.3 °F 29.8 in Calm   1 mph 89% 0 in 0 W/m2
22:54 59.4 °F 55.9 °F 29.8 in Calm   2 mph 88.5% 0 in 0 W/m2
22:59 59.5 °F 55.9 °F 29.8 in Calm   2 mph 88% 0 in 0 W/m2
23:04 59.5 °F 55.9 °F 29.8 in Calm   2 mph 88% 0 in 0 W/m2
23:09 59 °F 55.9 °F 29.8 in Calm   1 mph 89.4% 0 in 0 W/m2
23:14 58.6 °F 55.9 °F 29.8 in Calm   1 mph 90.6% 0 in 0 W/m2
23:19 58.6 °F 55.9 °F 29.8 in Calm   1 mph 91% 0 in 0 W/m2
23:24 58.6 °F 56.1 °F 29.8 in Calm   2 mph 91.2% 0 in 0 W/m2
23:29 58.3 °F 55.6 °F 29.8 in NW 0.6 mph 2 mph 91% 0 in 0 W/m2
23:34 58.1 °F 55.6 °F 29.8 in NW 1 mph 2 mph 91% 0 in 0 W/m2
23:39 58.3 °F 55.6 °F 29.8 in NW 0.4 mph 2 mph 91% 0 in 0 W/m2
23:44 58.1 °F 55.2 °F 29.8 in NW 0.2 mph 2 mph 90.4% 0 in 0 W/m2
23:49 58.1 °F 55.2 °F 29.8 in NW 1 mph 2 mph 90% 0 in 0 W/m2
23:54 58.1 °F 55 °F 29.8 in NW 1 mph 2 mph 89.4% 0 in 0 W/m2
23:59 58.1 °F 54.9 °F 29.8 in NW 1 mph 2 mph 89% 0 in 0 W/m2
Compliments of Weather Underground - 1.25 mb

Latitude S 35° 13' 00" Longitude E 149° 01' 22" Elevation 577 m
Page updated 30/11/2020 9:20:04 PM.
Powered by Cumulus MX v3.2.0 (3056)